sensor_id;sensor_type;location;lat;lon;timestamp;pressure;altitude;pressure_sealevel;temperature;humidity
66560;BME280;53413;49.878;8.142;2023-02-28T00:00:11;101063.06;;;-3.01;100.00
66560;BME280;53413;49.878;8.142;2023-02-28T00:02:38;101059.56;;;-3.03;100.00
66560;BME280;53413;49.878;8.142;2023-02-28T00:05:04;101061.81;;;-3.13;100.00
66560;BME280;53413;49.878;8.142;2023-02-28T00:07:31;101055.56;;;-3.21;100.00
66560;BME280;53413;49.878;8.142;2023-02-28T00:09:57;101057.88;;;-3.27;100.00
66560;BME280;53413;49.878;8.142;2023-02-28T00:12:23;101068.88;;;-3.31;100.00
66560;BME280;53413;49.878;8.142;2023-02-28T00:14:49;101062.66;;;-3.38;100.00
66560;BME280;53413;49.878;8.142;2023-02-28T00:17:15;101066.78;;;-3.42;100.00
66560;BME280;53413;49.878;8.142;2023-02-28T00:19:43;101066.59;;;-3.46;100.00
66560;BME280;53413;49.878;8.142;2023-02-28T00:22:08;101068.44;;;-3.44;100.00
66560;BME280;53413;49.878;8.142;2023-02-28T00:24:34;101073.75;;;-3.37;100.00
66560;BME280;53413;49.878;8.142;2023-02-28T00:26:59;101065.31;;;-3.35;100.00
66560;BME280;53413;49.878;8.142;2023-02-28T00:29:24;101064.44;;;-3.35;100.00
66560;BME280;53413;49.878;8.142;2023-02-28T00:31:50;101057.53;;;-3.38;100.00
66560;BME280;53413;49.878;8.142;2023-02-28T00:34:15;101060.91;;;-3.39;100.00
66560;BME280;53413;49.878;8.142;2023-02-28T00:36:40;101069.41;;;-3.40;100.00
66560;BME280;53413;49.878;8.142;2023-02-28T00:39:10;101064.22;;;-3.42;100.00
66560;BME280;53413;49.878;8.142;2023-02-28T00:41:35;101061.44;;;-3.48;100.00
66560;BME280;53413;49.878;8.142;2023-02-28T00:44:01;101064.13;;;-3.45;100.00
66560;BME280;53413;49.878;8.142;2023-02-28T00:46:26;101062.41;;;-3.44;100.00
66560;BME280;53413;49.878;8.142;2023-02-28T00:48:51;101058.19;;;-3.44;100.00
66560;BME280;53413;49.878;8.142;2023-02-28T00:51:17;101059.69;;;-3.49;100.00
66560;BME280;53413;49.878;8.142;2023-02-28T00:53:42;101058.72;;;-3.52;100.00
66560;BME280;53413;49.878;8.142;2023-02-28T00:56:07;101059.56;;;-3.52;100.00
66560;BME280;53413;49.878;8.142;2023-02-28T00:58:33;101065.59;;;-3.51;100.00
66560;BME280;53413;49.878;8.142;2023-02-28T01:00:58;101063.13;;;-3.48;100.00
66560;BME280;53413;49.878;8.142;2023-02-28T01:03:24;101059.69;;;-3.49;100.00
66560;BME280;53413;49.878;8.142;2023-02-28T01:05:49;101057.75;;;-3.56;100.00
66560;BME280;53413;49.878;8.142;2023-02-28T01:08:15;101061.81;;;-3.61;100.00
66560;BME280;53413;49.878;8.142;2023-02-28T01:10:41;101058.97;;;-3.69;100.00
66560;BME280;53413;49.878;8.142;2023-02-28T01:13:06;101057.22;;;-3.70;100.00
66560;BME280;53413;49.878;8.142;2023-02-28T01:15:32;101054.38;;;-3.78;100.00
66560;BME280;53413;49.878;8.142;2023-02-28T01:17:58;101056.47;;;-3.90;100.00
66560;BME280;53413;49.878;8.142;2023-02-28T01:20:23;101056.13;;;-3.99;100.00
66560;BME280;53413;49.878;8.142;2023-02-28T01:22:49;101059.97;;;-4.11;100.00
66560;BME280;53413;49.878;8.142;2023-02-28T01:25:14;101053.81;;;-4.16;100.00
66560;BME280;53413;49.878;8.142;2023-02-28T01:27:40;101061.41;;;-4.18;100.00
66560;BME280;53413;49.878;8.142;2023-02-28T01:30:07;101058.94;;;-4.16;100.00
66560;BME280;53413;49.878;8.142;2023-02-28T01:32:33;101053.19;;;-4.10;100.00
66560;BME280;53413;49.878;8.142;2023-02-28T01:34:59;101056.00;;;-4.03;100.00
66560;BME280;53413;49.878;8.142;2023-02-28T01:37:24;101054.47;;;-3.99;100.00
66560;BME280;53413;49.878;8.142;2023-02-28T01:39:49;101053.66;;;-3.98;100.00
66560;BME280;53413;49.878;8.142;2023-02-28T01:42:15;101054.50;;;-3.97;100.00
66560;BME280;53413;49.878;8.142;2023-02-28T01:47:31;101046.81;;;-3.97;100.00
66560;BME280;53413;49.878;8.142;2023-02-28T01:49:58;101046.81;;;-3.97;100.00
66560;BME280;53413;49.878;8.142;2023-02-28T01:52:26;101047.41;;;-4.05;100.00
66560;BME280;53413;49.878;8.142;2023-02-28T01:54:54;101049.81;;;-4.09;100.00
66560;BME280;53413;49.878;8.142;2023-02-28T01:57:24;101057.09;;;-4.19;100.00
66560;BME280;53413;49.878;8.142;2023-02-28T01:59:57;101049.34;;;-4.22;100.00
66560;BME280;53413;49.878;8.142;2023-02-28T02:02:25;101047.41;;;-4.27;100.00
66560;BME280;53413;49.878;8.142;2023-02-28T02:07:16;101046.13;;;-4.16;100.00
66560;BME280;53413;49.878;8.142;2023-02-28T02:09:42;101041.22;;;-4.10;100.00
66560;BME280;53413;49.878;8.142;2023-02-28T02:12:33;101038.03;;;-4.04;100.00
66560;BME280;53413;49.878;8.142;2023-02-28T02:15:09;101030.19;;;-4.09;100.00
66560;BME280;53413;49.878;8.142;2023-02-28T02:17:45;101036.06;;;-4.11;100.00
66560;BME280;53413;49.878;8.142;2023-02-28T02:39:31;101029.09;;;-4.37;100.00
66560;BME280;53413;49.878;8.142;2023-02-28T02:42:00;101031.66;;;-4.37;100.00
66560;BME280;53413;49.878;8.142;2023-02-28T02:47:11;101037.53;;;-4.39;100.00
66560;BME280;53413;49.878;8.142;2023-02-28T02:49:42;101030.19;;;-4.31;100.00
66560;BME280;53413;49.878;8.142;2023-02-28T02:52:12;101031.97;;;-4.29;100.00
66560;BME280;53413;49.878;8.142;2023-02-28T02:54:45;101026.81;;;-4.30;100.00
66560;BME280;53413;49.878;8.142;2023-02-28T02:57:32;101031.13;;;-4.29;100.00
66560;BME280;53413;49.878;8.142;2023-02-28T03:00:00;101032.91;;;-4.27;100.00
66560;BME280;53413;49.878;8.142;2023-02-28T03:02:29;101032.97;;;-4.25;100.00
66560;BME280;53413;49.878;8.142;2023-02-28T03:05:01;101030.56;;;-4.21;100.00
66560;BME280;53413;49.878;8.142;2023-02-28T03:07:28;101034.25;;;-4.14;100.00
66560;BME280;53413;49.878;8.142;2023-02-28T03:09:55;101029.72;;;-4.21;100.00
66560;BME280;53413;49.878;8.142;2023-02-28T03:12:25;101038.06;;;-4.25;100.00
66560;BME280;53413;49.878;8.142;2023-02-28T03:15:00;101032.06;;;-4.27;100.00
66560;BME280;53413;49.878;8.142;2023-02-28T03:23:16;101028.66;;;-4.26;100.00
66560;BME280;53413;49.878;8.142;2023-02-28T03:25:56;101026.09;;;-4.26;100.00
66560;BME280;53413;49.878;8.142;2023-02-28T03:28:33;101020.16;;;-4.25;100.00
66560;BME280;53413;49.878;8.142;2023-02-28T03:31:30;101022.63;;;-4.28;100.00
66560;BME280;53413;49.878;8.142;2023-02-28T03:33:59;101018.16;;;-4.34;100.00
66560;BME280;53413;49.878;8.142;2023-02-28T03:36:29;101027.19;;;-4.42;100.00
66560;BME280;53413;49.878;8.142;2023-02-28T03:39:00;101028.00;;;-4.43;100.00
66560;BME280;53413;49.878;8.142;2023-02-28T03:41:39;101024.63;;;-4.42;100.00
66560;BME280;53413;49.878;8.142;2023-02-28T03:44:15;101023.78;;;-4.43;100.00
66560;BME280;53413;49.878;8.142;2023-02-28T03:46:48;101022.06;;;-4.42;100.00
66560;BME280;53413;49.878;8.142;2023-02-28T03:49:19;101028.94;;;-4.41;100.00
66560;BME280;53413;49.878;8.142;2023-02-28T03:51:50;101023.78;;;-4.43;100.00
66560;BME280;53413;49.878;8.142;2023-02-28T03:54:26;101036.44;;;-4.46;100.00
66560;BME280;53413;49.878;8.142;2023-02-28T03:56:59;101032.00;;;-4.50;100.00
66560;BME280;53413;49.878;8.142;2023-02-28T04:01:59;101033.84;;;-4.69;100.00
66560;BME280;53413;49.878;8.142;2023-02-28T04:04:25;101025.03;;;-4.75;100.00
66560;BME280;53413;49.878;8.142;2023-02-28T04:06:51;101031.94;;;-4.73;100.00
66560;BME280;53413;49.878;8.142;2023-02-28T04:09:17;101032.22;;;-4.67;100.00
66560;BME280;53413;49.878;8.142;2023-02-28T04:11:50;101033.25;;;-4.61;100.00
66560;BME280;53413;49.878;8.142;2023-02-28T04:14:17;101035.00;;;-4.60;100.00
66560;BME280;53413;49.878;8.142;2023-02-28T04:16:42;101041.19;;;-4.55;100.00
66560;BME280;53413;49.878;8.142;2023-02-28T04:19:09;101036.84;;;-4.58;100.00
66560;BME280;53413;49.878;8.142;2023-02-28T04:21:38;101035.09;;;-4.59;100.00
66560;BME280;53413;49.878;8.142;2023-02-28T04:24:08;101032.75;;;-4.53;100.00
66560;BME280;53413;49.878;8.142;2023-02-28T04:26:39;101040.50;;;-4.51;100.00
66560;BME280;53413;49.878;8.142;2023-02-28T04:29:06;101034.75;;;-4.45;100.00
66560;BME280;53413;49.878;8.142;2023-02-28T04:31:32;101041.09;;;-4.36;100.00
66560;BME280;53413;49.878;8.142;2023-02-28T04:33:57;101035.25;;;-4.33;100.00
66560;BME280;53413;49.878;8.142;2023-02-28T04:36:23;101034.63;;;-4.27;100.00
66560;BME280;53413;49.878;8.142;2023-02-28T04:38:49;101036.31;;;-4.26;100.00
66560;BME280;53413;49.878;8.142;2023-02-28T04:41:15;101037.97;;;-4.28;100.00
66560;BME280;53413;49.878;8.142;2023-02-28T04:43:41;101031.00;;;-4.33;100.00
66560;BME280;53413;49.878;8.142;2023-02-28T04:46:06;101036.75;;;-4.38;100.00
66560;BME280;53413;49.878;8.142;2023-02-28T04:48:35;101033.50;;;-4.34;100.00
66560;BME280;53413;49.878;8.142;2023-02-28T04:51:02;101032.59;;;-4.35;100.00
66560;BME280;53413;49.878;8.142;2023-02-28T04:53:28;101027.38;;;-4.38;100.00
66560;BME280;53413;49.878;8.142;2023-02-28T04:55:54;101025.63;;;-4.39;100.00
66560;BME280;53413;49.878;8.142;2023-02-28T04:58:20;101027.63;;;-4.31;100.00
66560;BME280;53413;49.878;8.142;2023-02-28T05:00:48;101031.16;;;-4.28;100.00
66560;BME280;53413;49.878;8.142;2023-02-28T05:03:13;101032.97;;;-4.25;100.00
66560;BME280;53413;49.878;8.142;2023-02-28T05:05:39;101027.84;;;-4.25;100.00
66560;BME280;53413;49.878;8.142;2023-02-28T05:08:04;101031.34;;;-4.23;100.00
66560;BME280;53413;49.878;8.142;2023-02-28T05:10:30;101026.28;;;-4.22;100.00
66560;BME280;53413;49.878;8.142;2023-02-28T05:12:56;101026.97;;;-4.26;100.00
66560;BME280;53413;49.878;8.142;2023-02-28T05:15:21;101035.09;;;-4.15;100.00
66560;BME280;53413;49.878;8.142;2023-02-28T05:17:47;101036.25;;;-4.07;100.00
66560;BME280;53413;49.878;8.142;2023-02-28T05:20:12;101027.09;;;-4.00;100.00
66560;BME280;53413;49.878;8.142;2023-02-28T05:22:39;101036.63;;;-3.96;100.00
66560;BME280;53413;49.878;8.142;2023-02-28T05:25:05;101036.69;;;-3.94;100.00
66560;BME280;53413;49.878;8.142;2023-02-28T05:27:31;101031.75;;;-3.90;100.00
66560;BME280;53413;49.878;8.142;2023-02-28T05:29:57;101029.06;;;-3.93;100.00
66560;BME280;53413;49.878;8.142;2023-02-28T05:32:22;101028.91;;;-3.97;100.00
66560;BME280;53413;49.878;8.142;2023-02-28T05:34:48;101039.38;;;-3.91;100.00
66560;BME280;53413;49.878;8.142;2023-02-28T05:37:14;101031.59;;;-3.94;100.00
66560;BME280;53413;49.878;8.142;2023-02-28T05:39:41;101033.34;;;-3.93;100.00
66560;BME280;53413;49.878;8.142;2023-02-28T05:42:07;101035.16;;;-3.89;100.00
66560;BME280;53413;49.878;8.142;2023-02-28T05:44:33;101029.16;;;-3.91;100.00
66560;BME280;53413;49.878;8.142;2023-02-28T05:46:59;101036.81;;;-3.91;100.00
66560;BME280;53413;49.878;8.142;2023-02-28T05:49:24;101043.88;;;-3.85;100.00
66560;BME280;53413;49.878;8.142;2023-02-28T05:51:50;101042.94;;;-3.88;100.00
66560;BME280;53413;49.878;8.142;2023-02-28T05:54:15;101044.50;;;-3.91;100.00
66560;BME280;53413;49.878;8.142;2023-02-28T05:56:40;101043.50;;;-3.95;100.00
66560;BME280;53413;49.878;8.142;2023-02-28T05:59:09;101045.19;;;-3.95;100.00
66560;BME280;53413;49.878;8.142;2023-02-28T06:01:45;101047.47;;;-4.03;100.00
66560;BME280;53413;49.878;8.142;2023-02-28T06:04:14;101044.78;;;-4.06;100.00
66560;BME280;53413;49.878;8.142;2023-02-28T06:06:43;101054.09;;;-4.08;100.00
66560;BME280;53413;49.878;8.142;2023-02-28T06:09:10;101050.63;;;-4.10;100.00
66560;BME280;53413;49.878;8.142;2023-02-28T06:11:35;101051.44;;;-4.11;100.00
66560;BME280;53413;49.878;8.142;2023-02-28T06:14:00;101057.41;;;-4.11;100.00
66560;BME280;53413;49.878;8.142;2023-02-28T06:16:27;101056.41;;;-4.14;100.00
66560;BME280;53413;49.878;8.142;2023-02-28T06:18:53;101055.56;;;-4.15;100.00
66560;BME280;53413;49.878;8.142;2023-02-28T06:21:21;101056.53;;;-4.11;100.00
66560;BME280;53413;49.878;8.142;2023-02-28T06:23:46;101058.34;;;-4.09;100.00
66560;BME280;53413;49.878;8.142;2023-02-28T06:26:11;101052.63;;;-4.02;100.00
66560;BME280;53413;49.878;8.142;2023-02-28T06:28:37;101059.75;;;-3.94;100.00
66560;BME280;53413;49.878;8.142;2023-02-28T06:31:10;101057.47;;;-3.87;100.00
66560;BME280;53413;49.878;8.142;2023-02-28T06:33:37;101065.34;;;-3.82;100.00
66560;BME280;53413;49.878;8.142;2023-02-28T06:36:04;101064.69;;;-3.76;100.00
66560;BME280;53413;49.878;8.142;2023-02-28T06:38:30;101062.28;;;-3.72;100.00
66560;BME280;53413;49.878;8.142;2023-02-28T06:40:57;101061.66;;;-3.66;100.00
66560;BME280;53413;49.878;8.142;2023-02-28T06:43:23;101065.19;;;-3.62;100.00
66560;BME280;53413;49.878;8.142;2023-02-28T06:45:49;101064.63;;;-3.55;100.00
66560;BME280;53413;49.878;8.142;2023-02-28T06:48:14;101058.88;;;-3.48;100.00
66560;BME280;53413;49.878;8.142;2023-02-28T06:50:40;101072.13;;;-3.35;100.00
66560;BME280;53413;49.878;8.142;2023-02-28T06:53:05;101073.38;;;-3.24;100.00
66560;BME280;53413;49.878;8.142;2023-02-28T06:55:31;101076.38;;;-3.12;100.00
66560;BME280;53413;49.878;8.142;2023-02-28T06:57:57;101074.13;;;-3.02;100.00
66560;BME280;53413;49.878;8.142;2023-02-28T07:00:22;101080.59;;;-2.88;100.00
66560;BME280;53413;49.878;8.142;2023-02-28T07:02:48;101076.06;;;-2.69;100.00
66560;BME280;53413;49.878;8.142;2023-02-28T07:05:13;101074.84;;;-2.55;100.00
66560;BME280;53413;49.878;8.142;2023-02-28T07:07:39;101077.00;;;-2.41;100.00
66560;BME280;53413;49.878;8.142;2023-02-28T07:10:10;101082.50;;;-2.29;100.00
66560;BME280;53413;49.878;8.142;2023-02-28T07:12:36;101077.72;;;-2.18;100.00
66560;BME280;53413;49.878;8.142;2023-02-28T07:15:01;101079.78;;;-2.06;100.00
66560;BME280;53413;49.878;8.142;2023-02-28T07:17:28;101074.16;;;-1.94;100.00
66560;BME280;53413;49.878;8.142;2023-02-28T07:19:53;101090.91;;;-1.78;100.00
66560;BME280;53413;49.878;8.142;2023-02-28T07:22:18;101091.53;;;-1.57;100.00
66560;BME280;53413;49.878;8.142;2023-02-28T07:24:44;101091.16;;;-1.40;100.00
66560;BME280;53413;49.878;8.142;2023-02-28T07:27:09;101091.31;;;-1.34;100.00
66560;BME280;53413;49.878;8.142;2023-02-28T07:29:34;101085.66;;;-1.22;100.00
66560;BME280;53413;49.878;8.142;2023-02-28T07:32:00;101085.25;;;-0.70;100.00
66560;BME280;53413;49.878;8.142;2023-02-28T07:34:25;101090.53;;;2.63;100.00
66560;BME280;53413;49.878;8.142;2023-02-28T07:36:53;101086.09;;;6.32;80.06
66560;BME280;53413;49.878;8.142;2023-02-28T07:39:19;101072.31;;;9.09;64.80
66560;BME280;53413;49.878;8.142;2023-02-28T07:41:45;101069.09;;;10.85;54.62
66560;BME280;53413;49.878;8.142;2023-02-28T07:44:11;101063.97;;;11.87;49.39
66560;BME280;53413;49.878;8.142;2023-02-28T07:46:36;101054.44;;;12.77;45.87
66560;BME280;53413;49.878;8.142;2023-02-28T07:49:02;101063.19;;;13.62;44.64
66560;BME280;53413;49.878;8.142;2023-02-28T07:51:31;101063.59;;;13.76;41.32
66560;BME280;53413;49.878;8.142;2023-02-28T07:53:56;101066.50;;;14.41;40.50
66560;BME280;53413;49.878;8.142;2023-02-28T07:56:22;101052.63;;;15.28;38.31
66560;BME280;53413;49.878;8.142;2023-02-28T07:58:47;101054.91;;;15.79;37.75
66560;BME280;53413;49.878;8.142;2023-02-28T08:01:13;62379.06;;;-147.87;100.00
66560;BME280;53413;49.878;8.142;2023-02-28T08:03:39;62379.06;;;-147.87;100.00
66560;BME280;53413;49.878;8.142;2023-02-28T08:06:11;101067.13;;;12.01;39.94
66560;BME280;53413;49.878;8.142;2023-02-28T08:08:39;101076.72;;;9.61;43.90
66560;BME280;53413;49.878;8.142;2023-02-28T08:11:05;101080.63;;;8.74;45.73
66560;BME280;53413;49.878;8.142;2023-02-28T08:13:30;101078.19;;;9.76;44.99
66560;BME280;53413;49.878;8.142;2023-02-28T08:15:56;101065.19;;;11.75;40.95
66560;BME280;53413;49.878;8.142;2023-02-28T08:18:22;101066.81;;;11.45;40.91
66560;BME280;53413;49.878;8.142;2023-02-28T08:20:48;101080.59;;;10.35;42.39
66560;BME280;53413;49.878;8.142;2023-02-28T08:23:14;101081.44;;;8.79;44.53
66560;BME280;53413;49.878;8.142;2023-02-28T08:25:39;101075.91;;;7.42;46.91
66560;BME280;53413;49.878;8.142;2023-02-28T08:28:05;101089.59;;;6.08;49.09
66560;BME280;53413;49.878;8.142;2023-02-28T08:30:30;101086.16;;;5.60;51.41
66560;BME280;53413;49.878;8.142;2023-02-28T08:32:55;101081.84;;;5.46;51.79
66560;BME280;53413;49.878;8.142;2023-02-28T08:35:21;101098.25;;;5.05;53.02
66560;BME280;53413;49.878;8.142;2023-02-28T08:37:48;101086.03;;;4.76;53.86
66560;BME280;53413;49.878;8.142;2023-02-28T08:40:13;101085.25;;;4.86;53.67
66560;BME280;53413;49.878;8.142;2023-02-28T08:42:46;101091.28;;;4.88;53.51
66560;BME280;53413;49.878;8.142;2023-02-28T08:45:12;101098.22;;;4.88;54.40
66560;BME280;53413;49.878;8.142;2023-02-28T08:47:38;101099.91;;;4.83;55.18
66560;BME280;53413;49.878;8.142;2023-02-28T08:50:04;101089.56;;;4.86;55.66
66560;BME280;53413;49.878;8.142;2023-02-28T08:52:29;101093.84;;;4.68;55.09
66560;BME280;53413;49.878;8.142;2023-02-28T08:54:55;101091.25;;;4.79;54.84
66560;BME280;53413;49.878;8.142;2023-02-28T08:57:20;101088.72;;;4.99;54.81
66560;BME280;53413;49.878;8.142;2023-02-28T08:59:46;101089.63;;;5.28;54.36
66560;BME280;53413;49.878;8.142;2023-02-28T09:02:13;101082.69;;;5.48;53.04
66560;BME280;53413;49.878;8.142;2023-02-28T09:04:39;101088.78;;;5.78;52.54
66560;BME280;53413;49.878;8.142;2023-02-28T09:07:04;101092.97;;;6.47;51.93
66560;BME280;53413;49.878;8.142;2023-02-28T09:09:29;101073.31;;;7.40;49.21
66560;BME280;53413;49.878;8.142;2023-02-28T09:11:56;101071.97;;;7.95;47.80
66560;BME280;53413;49.878;8.142;2023-02-28T09:14:21;101076.31;;;7.93;47.84
66560;BME280;53413;49.878;8.142;2023-02-28T09:16:46;101068.38;;;8.06;46.88
66560;BME280;53413;49.878;8.142;2023-02-28T09:19:12;101074.59;;;7.94;46.45
66560;BME280;53413;49.878;8.142;2023-02-28T09:21:37;101080.66;;;7.94;46.01
66560;BME280;53413;49.878;8.142;2023-02-28T09:24:03;101086.19;;;8.47;45.10
66560;BME280;53413;49.878;8.142;2023-02-28T09:26:28;101078.34;;;8.51;44.51
66560;BME280;53413;49.878;8.142;2023-02-28T09:28:54;101080.72;;;9.80;43.24
66560;BME280;53413;49.878;8.142;2023-02-28T09:31:23;101062.56;;;12.08;40.50
66560;BME280;53413;49.878;8.142;2023-02-28T09:33:51;101057.31;;;14.04;37.83
66560;BME280;53413;49.878;8.142;2023-02-28T09:36:18;101057.31;;;14.04;37.83
66560;BME280;53413;49.878;8.142;2023-02-28T09:38:43;101057.63;;;15.34;34.63
66560;BME280;53413;49.878;8.142;2023-02-28T09:41:16;101056.59;;;15.59;33.60
66560;BME280;53413;49.878;8.142;2023-02-28T09:43:45;101048.56;;;15.42;33.12
66560;BME280;53413;49.878;8.142;2023-02-28T09:46:39;101053.66;;;15.24;32.88
66560;BME280;53413;49.878;8.142;2023-02-28T09:49:18;101047.41;;;15.04;33.20
66560;BME280;53413;49.878;8.142;2023-02-28T09:51:51;101058.16;;;14.77;33.06
66560;BME280;53413;49.878;8.142;2023-02-28T09:54:26;101071.50;;;14.25;33.14
66560;BME280;53413;49.878;8.142;2023-02-28T10:10:21;101073.50;;;12.24;35.09
66560;BME280;53413;49.878;8.142;2023-02-28T10:12:48;101074.09;;;11.33;36.10
66560;BME280;53413;49.878;8.142;2023-02-28T10:15:17;101076.97;;;11.22;36.65
66560;BME280;53413;49.878;8.142;2023-02-28T10:17:47;101077.16;;;9.86;37.77
66560;BME280;53413;49.878;8.142;2023-02-28T10:20:19;101079.38;;;8.32;39.68
66560;BME280;53413;49.878;8.142;2023-02-28T10:25:23;101089.44;;;6.61;43.41
66560;BME280;53413;49.878;8.142;2023-02-28T10:27:50;101092.19;;;6.27;44.84
66560;BME280;53413;49.878;8.142;2023-02-28T10:30:18;101085.16;;;6.47;45.26
66560;BME280;53413;49.878;8.142;2023-02-28T10:32:49;101083.47;;;6.32;45.35
66560;BME280;53413;49.878;8.142;2023-02-28T10:35:24;101093.09;;;6.04;46.00
66560;BME280;53413;49.878;8.142;2023-02-28T10:37:58;101089.59;;;6.08;46.12
66560;BME280;53413;49.878;8.142;2023-02-28T10:43:17;101080.91;;;6.14;45.65
66560;BME280;53413;49.878;8.142;2023-02-28T10:48:38;101079.94;;;6.51;45.95
66560;BME280;53413;49.878;8.142;2023-02-28T10:51:10;101079.13;;;6.42;45.38
66560;BME280;53413;49.878;8.142;2023-02-28T10:53:48;101079.16;;;6.30;45.76
66560;BME280;53413;49.878;8.142;2023-02-28T10:59:02;101069.69;;;5.99;46.91
66560;BME280;53413;49.878;8.142;2023-02-28T11:01:41;101070.56;;;6.03;47.06
66560;BME280;53413;49.878;8.142;2023-02-28T11:04:17;101069.59;;;6.30;46.79
66560;BME280;53413;49.878;8.142;2023-02-28T11:06:44;101074.81;;;6.34;46.11
66560;BME280;53413;49.878;8.142;2023-02-28T11:09:23;101051.31;;;6.44;46.48
66560;BME280;53413;49.878;8.142;2023-02-28T11:11:50;101056.59;;;6.26;46.89
66560;BME280;53413;49.878;8.142;2023-02-28T11:14:21;101065.28;;;6.17;46.48
66560;BME280;53413;49.878;8.142;2023-02-28T11:16:48;101062.72;;;5.97;46.72
66560;BME280;53413;49.878;8.142;2023-02-28T11:19:23;101060.16;;;5.86;47.30
66560;BME280;53413;49.878;8.142;2023-02-28T11:21:54;101041.94;;;5.81;47.08
66560;BME280;53413;49.878;8.142;2023-02-28T11:24:26;101059.31;;;5.50;47.21
66560;BME280;53413;49.878;8.142;2023-02-28T11:26:52;101042.00;;;5.32;47.69
66560;BME280;53413;49.878;8.142;2023-02-28T11:34:29;101037.63;;;5.77;47.47
66560;BME280;53413;49.878;8.142;2023-02-28T11:36:58;101045.38;;;6.10;46.32
66560;BME280;53413;49.878;8.142;2023-02-28T11:39:25;101043.53;;;6.35;46.98
66560;BME280;53413;49.878;8.142;2023-02-28T11:47:32;101038.28;;;6.54;45.27
66560;BME280;53413;49.878;8.142;2023-02-28T11:55:26;101036.63;;;6.32;45.93
66560;BME280;53413;49.878;8.142;2023-02-28T12:01:01;101035.75;;;6.27;46.39
66560;BME280;53413;49.878;8.142;2023-02-28T12:06:30;101040.13;;;6.30;44.80
66560;BME280;53413;49.878;8.142;2023-02-28T12:11:56;101019.22;;;6.41;45.25
66560;BME280;53413;49.878;8.142;2023-02-28T12:21:04;101025.25;;;6.54;45.08
66560;BME280;53413;49.878;8.142;2023-02-28T12:28:46;101018.38;;;6.34;45.15
66560;BME280;53413;49.878;8.142;2023-02-28T12:31:18;101018.47;;;6.19;45.27
66560;BME280;53413;49.878;8.142;2023-02-28T12:33:47;101022.78;;;6.18;44.72
66560;BME280;53413;49.878;8.142;2023-02-28T12:36:17;101031.53;;;5.89;45.65
66560;BME280;53413;49.878;8.142;2023-02-28T12:39:11;101016.84;;;5.68;46.10
66560;BME280;53413;49.878;8.142;2023-02-28T12:44:13;101019.44;;;5.42;46.43
66560;BME280;53413;49.878;8.142;2023-02-28T12:46:49;101016.84;;;5.52;47.38
66560;BME280;53413;49.878;8.142;2023-02-28T12:49:21;101012.50;;;5.70;46.52
66560;BME280;53413;49.878;8.142;2023-02-28T12:51:48;101010.75;;;5.81;46.91
66560;BME280;53413;49.878;8.142;2023-02-28T12:54:25;101017.69;;;5.76;46.59
66560;BME280;53413;49.878;8.142;2023-02-28T12:59:54;101021.19;;;5.64;46.52
66560;BME280;53413;49.878;8.142;2023-02-28T13:02:42;101012.50;;;5.75;47.62
66560;BME280;53413;49.878;8.142;2023-02-28T13:10:50;101008.13;;;5.72;46.90
66560;BME280;53413;49.878;8.142;2023-02-28T13:13:24;101012.50;;;5.67;46.64
66560;BME280;53413;49.878;8.142;2023-02-28T13:16:07;101002.09;;;5.59;46.78
66560;BME280;53413;49.878;8.142;2023-02-28T13:18:37;101010.78;;;5.58;46.48
66560;BME280;53413;49.878;8.142;2023-02-28T13:21:06;101014.22;;;5.54;46.79
66560;BME280;53413;49.878;8.142;2023-02-28T13:26:11;101002.97;;;5.58;46.94
66560;BME280;53413;49.878;8.142;2023-02-28T13:28:59;101009.03;;;5.60;46.69
66560;BME280;53413;49.878;8.142;2023-02-28T13:31:25;100998.63;;;5.60;46.56
66560;BME280;53413;49.878;8.142;2023-02-28T13:38:52;101002.88;;;5.97;46.81
66560;BME280;53413;49.878;8.142;2023-02-28T13:44:06;100996.81;;;5.98;46.84
66560;BME280;53413;49.878;8.142;2023-02-28T13:46:35;101002.03;;;5.95;46.35
66560;BME280;53413;49.878;8.142;2023-02-28T14:03:05;100997.66;;;5.97;46.72
66560;BME280;53413;49.878;8.142;2023-02-28T14:05:35;100995.94;;;5.99;45.83
66560;BME280;53413;49.878;8.142;2023-02-28T14:10:39;101001.13;;;5.99;45.90
66560;BME280;53413;49.878;8.142;2023-02-28T14:18:17;100983.81;;;6.01;45.99
66560;BME280;53413;49.878;8.142;2023-02-28T14:20:43;100978.56;;;6.13;46.22
66560;BME280;53413;49.878;8.142;2023-02-28T14:28:55;100981.25;;;5.84;47.33
66560;BME280;53413;49.878;8.142;2023-02-28T14:31:39;100987.34;;;5.78;46.97
66560;BME280;53413;49.878;8.142;2023-02-28T14:34:27;100977.78;;;5.77;47.74
66560;BME280;53413;49.878;8.142;2023-02-28T14:37:00;100991.69;;;5.72;46.84
66560;BME280;53413;49.878;8.142;2023-02-28T14:39:28;100983.03;;;5.68;47.49
66560;BME280;53413;49.878;8.142;2023-02-28T14:41:56;100981.28;;;5.65;47.42
66560;BME280;53413;49.878;8.142;2023-02-28T14:44:26;100978.69;;;5.70;48.04
66560;BME280;53413;49.878;8.142;2023-02-28T14:46:54;100976.94;;;5.75;47.83
66560;BME280;53413;49.878;8.142;2023-02-28T14:49:25;100975.22;;;5.73;48.53
66560;BME280;53413;49.878;8.142;2023-02-28T14:52:13;100977.84;;;5.59;48.08
66560;BME280;53413;49.878;8.142;2023-02-28T14:54:40;100978.72;;;5.44;47.78
66560;BME280;53413;49.878;8.142;2023-02-28T15:02:36;100958.84;;;5.19;48.77
66560;BME280;53413;49.878;8.142;2023-02-28T15:07:45;100964.88;;;5.15;49.49
66560;BME280;53413;49.878;8.142;2023-02-28T15:13:07;100964.03;;;5.10;49.47
66560;BME280;53413;49.878;8.142;2023-02-28T15:15:41;100964.03;;;5.04;50.08
66560;BME280;53413;49.878;8.142;2023-02-28T15:18:11;100968.38;;;4.96;49.96
66560;BME280;53413;49.878;8.142;2023-02-28T15:20:41;100964.88;;;4.87;50.46
66560;BME280;53413;49.878;8.142;2023-02-28T15:23:07;100969.22;;;4.88;50.94
66560;BME280;53413;49.878;8.142;2023-02-28T15:25:34;100969.22;;;4.85;49.86
66560;BME280;53413;49.878;8.142;2023-02-28T15:27:59;100966.63;;;4.77;49.65
66560;BME280;53413;49.878;8.142;2023-02-28T15:30:28;100969.22;;;4.70;49.75